Погода Ондангвана неделю

Очикото, Намибия

15 - 21 июня
  • 15июня
    Сегодня
    +9°
    +27°
    Ясно и безоблачно
    ВремяПогодаТемператураВлажностьДавлениеВетер, м/сВероятность осадков
    02:00Ясно и безоблачно+13°C29 %673 мм2.3 м/с3 %
    05:00Ясно и безоблачно+13°C29 %673 мм2.4 м/с3 %
    08:00Ясно и безоблачно+10°C33 %673 мм2.2 м/с3 %
    11:00Ясно и безоблачно+22°C19 %677 мм4.2 м/с3 %
    14:00Ясно и безоблачно+27°C13 %675 мм4.0 м/с3 %
    17:00Ясно и безоблачно+26°C10 %674 мм4.6 м/с3 %
    20:00Ясно и безоблачно+19°C14 %673 мм1.5 м/с3 %
    23:00Ясно и безоблачно+15°C17 %673 мм2.1 м/с3 %
  • 16июня
    Воскресенье
    +10°
    +28°
    Ясно и безоблачно
    ВремяПогодаТемператураВлажностьДавлениеВетер, м/сВероятность осадков
    02:00Ясно и безоблачно+13°C18 %672 мм2.3 м/с3 %
    05:00Ясно и безоблачно+11°C22 %672 мм2.4 м/с3 %
    08:00Ясно и безоблачно+10°C25 %673 мм2.6 м/с3 %
    11:00Ясно и безоблачно+23°C16 %676 мм4.7 м/с3 %
    14:00Ясно и безоблачно+27°C12 %675 мм3.8 м/с3 %
    17:00Ясно и безоблачно+27°C11 %673 мм4.7 м/с3 %
    20:00Ясно и безоблачно+19°C18 %672 мм1.4 м/с3 %
    23:00Ясно и безоблачно+15°C21 %672 мм2.0 м/с3 %
  • 17июня
    Понедельник
    +10°
    +28°
    Ясно и безоблачно
    ВремяПогодаТемператураВлажностьДавлениеВетер, м/сВероятность осадков
    02:00Ясно и безоблачно+13°C25 %671 мм2.2 м/с3 %
    05:00Ясно и безоблачно+11°C30 %671 мм2.3 м/с3 %
    08:00Ясно и безоблачно+10°C34 %672 мм2.1 м/с3 %
    11:00Ясно и безоблачно+23°C21 %676 мм4.0 м/с3 %
    14:00Ясно и безоблачно+28°C12 %675 мм2.8 м/с3 %
    17:00Ясно и безоблачно+27°C12 %673 мм1.0 м/с3 %
    20:00Ясно и безоблачно+20°C18 %672 мм1.2 м/с3 %
    23:00Ясно и безоблачно+16°C22 %672 мм1.8 м/с3 %
  • 18июня
    Вторник
    +10°
    +29°
    Ясно и безоблачно
    ВремяПогодаТемператураВлажностьДавлениеВетер, м/сВероятность осадков
    02:00Ясно и безоблачно+13°C27 %671 мм1.8 м/с3 %
    05:00Ясно и безоблачно+10°C31 %670 мм2.0 м/с3 %
    08:00Ясно и безоблачно+11°C41 %672 мм2.1 м/с3 %
    11:00Ясно и безоблачно+23°C25 %676 мм3.5 м/с3 %
    14:00Ясно и безоблачно+28°C14 %674 мм2.7 м/с3 %
    17:00Ясно и безоблачно+28°C13 %673 мм1.0 м/с3 %
    20:00Ясно и безоблачно+20°C20 %672 мм1.4 м/с3 %
    23:00Ясно и безоблачно+16°C26 %672 мм1.8 м/с3 %
  • 19июня
    Среда
    +11°
    +29°
    Небольшая облачность
    ВремяПогодаТемператураВлажностьДавлениеВетер, м/сВероятность осадков
    02:00Ясно и безоблачно+13°C35 %671 мм1.7 м/с3 %
    05:00Ясно и безоблачно+11°C39 %671 мм1.9 м/с3 %
    08:00Ясно и безоблачно+12°C44 %672 мм1.9 м/с3 %
    11:00Ясно и безоблачно+24°C24 %675 мм3.7 м/с3 %
    14:00Небольшая облачность+29°C15 %674 мм3.0 м/с3 %
    17:00Ясно и безоблачно+28°C14 %673 мм1.5 м/с3 %
    20:00Ясно и безоблачно+21°C21 %672 мм1.4 м/с3 %
    23:00Ясно и безоблачно+17°C27 %672 мм1.7 м/с3 %
Мы используем cookies
Соглашаюсь